createdAt,value
2019-03-16T00:01:33.685Z,6.43
2019-03-16T00:04:00.341Z,6.42
2019-03-16T00:06:27.001Z,6.38
2019-03-16T00:08:53.821Z,6.39
2019-03-16T00:11:20.615Z,6.33
2019-03-16T00:13:47.472Z,6.34
2019-03-16T00:16:14.327Z,6.32
2019-03-16T00:18:40.973Z,6.32
2019-03-16T00:21:07.729Z,6.29
2019-03-16T00:23:34.647Z,6.29
2019-03-16T00:26:01.506Z,6.32
2019-03-16T00:28:28.202Z,6.36
2019-03-16T00:30:54.988Z,6.34
2019-03-16T00:33:21.685Z,6.32
2019-03-16T00:35:48.576Z,6.38
2019-03-16T00:38:15.506Z,6.35
2019-03-16T00:40:42.481Z,6.37
2019-03-16T00:43:09.405Z,6.40
2019-03-16T00:45:36.249Z,6.37
2019-03-16T00:48:03.057Z,6.36
2019-03-16T00:50:29.731Z,6.41
2019-03-16T00:52:56.456Z,6.38
2019-03-16T00:55:23.105Z,6.38
2019-03-16T00:57:50.526Z,6.44
2019-03-16T01:00:17.560Z,6.45
2019-03-16T01:02:44.384Z,6.47
2019-03-16T01:05:11.481Z,6.45
2019-03-16T01:07:38.432Z,6.46
2019-03-16T01:10:06.028Z,6.49
2019-03-16T01:12:32.825Z,6.40
2019-03-16T01:14:59.498Z,6.46
2019-03-16T01:17:26.461Z,6.41
2019-03-16T01:19:53.143Z,6.45
2019-03-16T01:22:19.955Z,6.46
2019-03-16T01:24:46.669Z,6.42
2019-03-16T01:27:14.742Z,6.41
2019-03-16T01:29:41.717Z,6.40
2019-03-16T01:32:08.437Z,6.40
2019-03-16T01:34:35.259Z,6.41
2019-03-16T01:37:01.919Z,6.39
2019-03-16T01:39:28.698Z,6.37
2019-03-16T01:41:55.361Z,6.39
2019-03-16T01:44:22.024Z,6.34
2019-03-16T01:46:48.742Z,6.34
2019-03-16T01:49:15.707Z,6.33
2019-03-16T01:51:42.382Z,5.95
2019-03-16T01:54:09.361Z,6.39
2019-03-16T01:56:36.014Z,6.38
2019-03-16T01:59:02.896Z,6.41
2019-03-16T02:01:29.562Z,6.44
2019-03-16T02:03:56.365Z,6.43
2019-03-16T02:06:23.098Z,6.39
2019-03-16T02:08:49.846Z,6.43
2019-03-16T02:11:16.584Z,6.46
2019-03-16T02:13:43.527Z,6.45
2019-03-16T02:16:11.611Z,6.45
2019-03-16T02:18:41.027Z,6.50
2019-03-16T02:21:08.002Z,6.41
2019-03-16T02:23:34.997Z,6.40
2019-03-16T02:26:02.014Z,6.43
2019-03-16T02:28:28.953Z,6.43
2019-03-16T02:30:55.653Z,6.40
2019-03-16T02:33:22.473Z,6.42
2019-03-16T02:35:49.366Z,6.39
2019-03-16T02:38:16.104Z,6.38
2019-03-16T02:40:42.787Z,6.37
2019-03-16T02:43:09.699Z,6.35
2019-03-16T02:45:36.671Z,6.38
2019-03-16T02:48:03.488Z,6.34
2019-03-16T02:50:30.505Z,6.32
2019-03-16T02:52:57.263Z,6.15
2019-03-16T02:55:24.004Z,6.10
2019-03-16T02:58:04.562Z,6.09
2019-03-16T03:00:31.392Z,6.06
2019-03-16T03:02:58.237Z,6.01
2019-03-16T03:05:24.911Z,6.03
2019-03-16T03:07:51.825Z,5.98
2019-03-16T03:10:18.604Z,5.99
2019-03-16T03:12:45.533Z,6.10
2019-03-16T03:15:12.387Z,6.12
2019-03-16T03:17:39.179Z,6.14
2019-03-16T03:20:06.040Z,6.16
2019-03-16T03:22:32.741Z,6.16
2019-03-16T03:24:59.396Z,6.17
2019-03-16T03:27:26.181Z,6.17
2019-03-16T03:29:57.115Z,6.21
2019-03-16T03:32:21.529Z,6.21
2019-03-16T03:34:48.187Z,6.25
2019-03-16T03:37:14.860Z,6.26
2019-03-16T03:39:41.540Z,6.27
2019-03-16T03:42:08.338Z,6.22
2019-03-16T03:44:34.994Z,6.19
2019-03-16T03:47:01.679Z,6.17
2019-03-16T03:49:28.390Z,6.13
2019-03-16T03:51:55.029Z,6.17
2019-03-16T03:54:21.867Z,6.10
2019-03-16T03:56:49.630Z,6.12
2019-03-16T03:59:16.450Z,6.07
2019-03-16T04:01:43.242Z,6.11
2019-03-16T04:04:15.672Z,6.13
2019-03-16T04:06:38.699Z,6.09
2019-03-16T04:09:06.833Z,6.12
2019-03-16T04:11:34.531Z,6.13
2019-03-16T04:14:01.323Z,6.04
2019-03-16T04:16:28.017Z,6.02
2019-03-16T04:18:54.742Z,6.02
2019-03-16T04:21:21.503Z,6.04
2019-03-16T04:23:48.164Z,6.10
2019-03-16T04:26:14.855Z,6.08
2019-03-16T04:28:41.560Z,6.09
2019-03-16T04:31:08.365Z,6.11
2019-03-16T04:33:35.074Z,6.10
2019-03-16T04:36:01.747Z,6.05
2019-03-16T04:38:28.439Z,6.05
2019-03-16T04:40:56.336Z,6.08
2019-03-16T04:43:24.045Z,6.06
2019-03-16T04:45:50.718Z,6.09
2019-03-16T04:48:17.421Z,6.06
2019-03-16T04:50:44.185Z,6.00
2019-03-16T04:53:10.868Z,6.01
2019-03-16T04:55:37.541Z,6.02
2019-03-16T04:58:04.353Z,6.04
2019-03-16T05:00:31.138Z,6.03
2019-03-16T05:02:57.930Z,6.01
2019-03-16T05:05:24.631Z,6.05
2019-03-16T05:07:51.449Z,6.01
2019-03-16T05:10:18.142Z,6.02
2019-03-16T05:12:44.821Z,5.99
2019-03-16T05:15:11.582Z,6.02
2019-03-16T05:17:38.240Z,5.98
2019-03-16T05:20:05.915Z,5.99
2019-03-16T05:22:32.601Z,6.02
2019-03-16T05:24:59.259Z,6.01
2019-03-16T05:27:25.933Z,6.00
2019-03-16T05:29:52.601Z,6.00
2019-03-16T05:32:19.278Z,6.02
2019-03-16T05:34:55.958Z,6.05
2019-03-16T05:37:14.546Z,5.97
2019-03-16T05:39:41.225Z,6.00
2019-03-16T05:42:07.894Z,5.99
2019-03-16T05:44:34.589Z,5.99
2019-03-16T05:47:01.242Z,5.95
2019-03-16T05:49:27.931Z,5.98
2019-03-16T05:51:54.619Z,5.93
2019-03-16T05:54:21.281Z,5.94
2019-03-16T05:56:47.976Z,5.95
2019-03-16T05:59:14.948Z,5.94
2019-03-16T06:01:41.605Z,5.91
2019-03-16T06:04:08.334Z,5.88
2019-03-16T06:06:35.021Z,5.88
2019-03-16T06:09:01.711Z,5.87
2019-03-16T06:11:28.498Z,6.31
2019-03-16T06:13:55.169Z,6.40
2019-03-16T06:16:21.841Z,6.01
2019-03-16T06:18:48.539Z,5.93
2019-03-16T06:21:15.189Z,5.87
2019-03-16T06:23:41.855Z,5.84
2019-03-16T06:26:08.729Z,5.89
2019-03-16T06:28:35.392Z,5.84
2019-03-16T06:31:02.063Z,5.86
2019-03-16T06:33:28.749Z,5.80
2019-03-16T06:35:55.455Z,5.81
2019-03-16T06:38:22.117Z,5.77
2019-03-16T06:40:48.806Z,5.82
2019-03-16T06:43:15.661Z,5.78
2019-03-16T06:45:42.462Z,5.75
2019-03-16T06:48:09.153Z,5.79
2019-03-16T06:50:35.954Z,5.82
2019-03-16T06:53:02.837Z,5.83
2019-03-16T06:55:29.522Z,5.82
2019-03-16T06:57:57.263Z,5.83
2019-03-16T07:00:24.045Z,5.86
2019-03-16T07:02:50.743Z,5.89
2019-03-16T07:05:20.708Z,5.90
2019-03-16T07:07:46.151Z,5.91
2019-03-16T07:10:13.033Z,5.93
2019-03-16T07:12:39.734Z,5.90
2019-03-16T07:15:06.826Z,5.97
2019-03-16T07:17:33.729Z,5.93
2019-03-16T07:20:00.400Z,5.98
2019-03-16T07:22:27.090Z,5.98
2019-03-16T07:24:53.770Z,6.00
2019-03-16T07:27:26.030Z,6.00
2019-03-16T07:29:49.362Z,6.00
2019-03-16T07:32:16.082Z,5.99
2019-03-16T07:34:42.865Z,6.03
2019-03-16T07:37:09.526Z,6.03
2019-03-16T07:39:36.240Z,6.05
2019-03-16T07:42:02.906Z,6.11
2019-03-16T07:44:29.579Z,6.11
2019-03-16T07:46:56.566Z,6.15
2019-03-16T07:49:23.262Z,6.12
2019-03-16T07:51:49.954Z,6.15
2019-03-16T07:54:16.722Z,6.18
2019-03-16T07:56:43.516Z,6.14
2019-03-16T07:59:10.167Z,6.19
2019-03-16T08:01:36.934Z,6.22
2019-03-16T08:04:03.833Z,6.26
2019-03-16T08:06:33.248Z,6.34
2019-03-16T08:08:59.139Z,6.35
2019-03-16T08:11:26.001Z,6.30
2019-03-16T08:13:52.647Z,6.41
2019-03-16T08:16:19.355Z,6.45
2019-03-16T08:18:46.237Z,6.41
2019-03-16T08:21:13.002Z,6.47
2019-03-16T08:23:39.668Z,6.49
2019-03-16T08:26:06.359Z,6.54
2019-03-16T08:28:34.111Z,6.54
2019-03-16T08:31:00.791Z,6.60
2019-03-16T08:33:27.580Z,6.57
2019-03-16T08:36:16.250Z,6.62
2019-03-16T08:38:43.797Z,6.67
2019-03-16T08:41:10.517Z,6.73
2019-03-16T08:43:37.201Z,6.84
2019-03-16T08:46:04.059Z,6.78
2019-03-16T08:48:30.760Z,6.87
2019-03-16T08:50:59.355Z,6.86
2019-03-16T08:53:26.398Z,6.94
2019-03-16T08:55:53.162Z,6.93
2019-03-16T08:58:19.832Z,6.86
2019-03-16T09:00:46.501Z,7.02
2019-03-16T09:03:13.185Z,6.94
2019-03-16T09:05:40.047Z,7.03
2019-03-16T09:08:06.739Z,6.97
2019-03-16T09:10:33.512Z,6.84
2019-03-16T09:13:00.624Z,6.86
2019-03-16T09:15:27.281Z,6.87
2019-03-16T09:17:54.195Z,6.90
2019-03-16T09:20:20.841Z,7.00
2019-03-16T09:22:49.714Z,7.03
2019-03-16T09:25:17.084Z,7.03
2019-03-16T09:27:43.751Z,7.05
2019-03-16T09:30:11.663Z,6.98
2019-03-16T09:32:39.406Z,7.02
2019-03-16T09:35:06.541Z,6.99
2019-03-16T09:37:33.235Z,6.85
2019-03-16T09:39:59.938Z,6.92
2019-03-16T09:42:26.565Z,6.78
2019-03-16T09:44:53.479Z,6.75
2019-03-16T09:47:20.254Z,6.67
2019-03-16T09:49:47.134Z,6.53
2019-03-16T09:52:13.858Z,6.45
2019-03-16T09:54:41.553Z,6.65
2019-03-16T09:57:08.398Z,6.55
2019-03-16T09:59:36.271Z,6.55
2019-03-16T10:02:03.058Z,6.43
2019-03-16T10:04:29.948Z,6.47
2019-03-16T10:06:56.628Z,6.35
2019-03-16T10:09:23.284Z,6.30
2019-03-16T10:11:49.958Z,6.17
2019-03-16T10:14:16.742Z,6.25
2019-03-16T10:16:43.524Z,6.19
2019-03-16T10:19:10.208Z,6.29
2019-03-16T10:21:36.907Z,6.33
2019-03-16T10:24:03.670Z,6.41
2019-03-16T10:26:31.713Z,6.48
2019-03-16T10:28:58.363Z,6.49
2019-03-16T10:31:25.030Z,6.54
2019-03-16T10:33:51.714Z,6.55
2019-03-16T10:36:18.376Z,6.57
2019-03-16T10:38:45.134Z,6.66
2019-03-16T10:41:11.821Z,6.70
2019-03-16T10:43:38.468Z,6.64
2019-03-16T10:46:08.244Z,6.79
2019-03-16T10:48:34.240Z,6.86
2019-03-16T10:51:00.932Z,6.78
2019-03-16T10:53:27.792Z,6.76
2019-03-16T10:55:54.932Z,6.82
2019-03-16T10:58:22.815Z,6.70
2019-03-16T11:00:49.515Z,6.71
2019-03-16T11:03:16.228Z,6.70
2019-03-16T11:05:43.260Z,6.77
2019-03-16T11:08:09.931Z,6.66
2019-03-16T11:10:36.713Z,6.57
2019-03-16T11:13:03.496Z,6.56
2019-03-16T11:15:31.708Z,6.61
2019-03-16T11:17:58.367Z,6.63
2019-03-16T11:20:25.081Z,6.45
2019-03-16T11:22:51.986Z,6.32
2019-03-16T11:25:19.042Z,6.21
2019-03-16T11:27:45.916Z,6.19
2019-03-16T11:30:12.812Z,6.14
2019-03-16T11:32:39.855Z,6.08
2019-03-16T11:35:08.195Z,6.05
2019-03-16T11:37:35.265Z,6.04
2019-03-16T11:40:03.136Z,6.15
2019-03-16T11:42:30.076Z,5.92
2019-03-16T11:44:56.790Z,5.83
2019-03-16T11:47:26.061Z,5.71
2019-03-16T11:49:55.605Z,5.71
2019-03-16T11:52:23.924Z,5.78
2019-03-16T11:54:50.922Z,5.61
2019-03-16T11:57:18.759Z,5.67
2019-03-16T11:59:45.692Z,5.50
2019-03-16T12:02:12.462Z,5.60
2019-03-16T12:04:39.252Z,5.49
2019-03-16T12:07:05.930Z,5.29
2019-03-16T12:09:32.596Z,5.35
2019-03-16T12:11:59.278Z,5.31
2019-03-16T12:14:25.966Z,5.11
2019-03-16T12:16:52.653Z,5.10
2019-03-16T12:19:19.312Z,5.16
2019-03-16T12:21:46.138Z,5.22
2019-03-16T12:24:12.813Z,5.23
2019-03-16T12:26:39.479Z,5.18
2019-03-16T12:29:06.204Z,5.10
2019-03-16T12:31:32.982Z,5.21
2019-03-16T12:33:59.847Z,5.18
2019-03-16T12:36:26.784Z,5.08
2019-03-16T12:38:53.437Z,5.28
2019-03-16T12:41:20.118Z,5.24
2019-03-16T12:43:46.826Z,5.17
2019-03-16T12:46:13.506Z,5.17
2019-03-16T12:48:40.218Z,5.36
2019-03-16T12:51:06.877Z,5.24
2019-03-16T12:53:33.888Z,5.12
2019-03-16T12:56:00.907Z,4.98
2019-03-16T12:58:27.614Z,5.01
2019-03-16T13:00:54.589Z,4.94
2019-03-16T13:03:21.262Z,4.91
2019-03-16T13:05:48.042Z,4.97
2019-03-16T13:08:14.725Z,4.96
2019-03-16T13:10:41.568Z,5.11
2019-03-16T13:13:08.290Z,5.06
2019-03-16T13:15:35.078Z,5.08
2019-03-16T13:18:01.874Z,6.38
2019-03-16T13:20:28.672Z,5.36
2019-03-16T13:22:55.628Z,5.13
2019-03-16T13:25:22.347Z,5.10
2019-03-16T13:27:49.130Z,5.34
2019-03-16T13:30:15.982Z,4.81
2019-03-16T13:32:43.231Z,5.11
2019-03-16T13:35:10.160Z,5.19
2019-03-16T13:37:37.132Z,5.28
2019-03-16T13:40:04.361Z,5.32
2019-03-16T13:42:31.302Z,5.18
2019-03-16T13:44:58.128Z,5.18
2019-03-16T13:47:24.918Z,5.33
2019-03-16T13:49:51.622Z,5.24
2019-03-16T13:52:18.290Z,5.19
2019-03-16T13:54:45.467Z,5.19
2019-03-16T13:57:12.173Z,7.10
2019-03-16T13:59:38.878Z,7.12
2019-03-16T14:02:05.569Z,7.06
2019-03-16T14:04:32.737Z,6.16
2019-03-16T14:06:59.390Z,6.69
2019-03-16T14:09:26.057Z,6.18
2019-03-16T14:11:52.949Z,5.63
2019-03-16T14:14:19.762Z,5.46
2019-03-16T14:16:46.646Z,5.45
2019-03-16T14:19:13.427Z,5.37
2019-03-16T14:21:40.709Z,5.48
2019-03-16T14:24:07.406Z,5.42
2019-03-16T14:26:34.193Z,5.37
2019-03-16T14:29:01.234Z,5.43
2019-03-16T14:31:28.212Z,5.37
2019-03-16T14:33:54.924Z,5.33
2019-03-16T14:36:21.913Z,5.34
2019-03-16T14:38:48.966Z,5.52
2019-03-16T14:41:15.655Z,5.40
2019-03-16T14:43:43.437Z,5.62
2019-03-16T14:46:10.102Z,5.51
2019-03-16T14:48:37.089Z,5.56
2019-03-16T14:51:04.216Z,5.51
2019-03-16T14:53:30.891Z,5.50
2019-03-16T14:55:57.725Z,5.52
2019-03-16T14:58:31.898Z,5.58
2019-03-16T15:00:58.701Z,5.60
2019-03-16T15:03:25.492Z,5.59
2019-03-16T15:05:52.159Z,5.77
2019-03-16T15:08:19.090Z,5.65
2019-03-16T15:10:45.867Z,6.10
2019-03-16T15:13:12.526Z,6.06
2019-03-16T15:15:39.206Z,6.32
2019-03-16T15:18:05.975Z,6.18
2019-03-16T15:20:32.791Z,6.05
2019-03-16T15:22:59.452Z,6.02
2019-03-16T15:25:26.116Z,6.02
2019-03-16T15:27:52.806Z,6.15
2019-03-16T15:30:19.830Z,6.22
2019-03-16T15:32:46.496Z,6.26
2019-03-16T15:35:13.306Z,6.33
2019-03-16T15:37:39.979Z,6.49
2019-03-16T15:40:07.619Z,6.49
2019-03-16T15:42:34.400Z,6.61
2019-03-16T15:45:01.182Z,6.76
2019-03-16T15:47:29.995Z,6.85
2019-03-16T15:49:58.563Z,6.94
2019-03-16T15:52:25.106Z,7.07
2019-03-16T15:54:51.777Z,7.17
2019-03-16T15:57:18.602Z,7.20
2019-03-16T15:59:45.281Z,7.31
2019-03-16T16:02:12.118Z,7.45
2019-03-16T16:04:38.793Z,7.47
2019-03-16T16:07:05.763Z,7.53
2019-03-16T16:09:32.439Z,7.64
2019-03-16T16:11:59.198Z,7.79
2019-03-16T16:14:25.866Z,7.77
2019-03-16T16:16:52.554Z,7.79
2019-03-16T16:19:22.251Z,7.88
2019-03-16T16:21:48.901Z,7.85
2019-03-16T16:24:15.600Z,7.93
2019-03-16T16:26:42.261Z,7.99
2019-03-16T16:29:09.018Z,8.07
2019-03-16T16:31:35.686Z,8.17
2019-03-16T16:34:03.175Z,8.18
2019-03-16T16:36:29.970Z,8.23
2019-03-16T16:38:56.651Z,8.28
2019-03-16T16:41:25.529Z,8.38
2019-03-16T16:43:51.913Z,8.34
2019-03-16T16:46:18.717Z,8.43
2019-03-16T16:48:45.673Z,8.48
2019-03-16T16:51:12.333Z,8.47
2019-03-16T16:53:39.011Z,8.47
2019-03-16T16:56:06.089Z,8.48
2019-03-16T16:58:32.879Z,8.47
2019-03-16T17:00:59.558Z,8.51
2019-03-16T17:03:26.232Z,8.50
2019-03-16T17:05:52.893Z,8.50
2019-03-16T17:08:19.911Z,8.54
2019-03-16T17:10:46.794Z,8.51
2019-03-16T17:13:13.475Z,8.60
2019-03-16T17:15:40.211Z,8.58
2019-03-16T17:18:06.895Z,8.58
2019-03-16T17:20:33.678Z,8.63
2019-03-16T17:23:00.350Z,8.62
2019-03-16T17:25:27.040Z,8.71
2019-03-16T17:27:54.497Z,8.68
2019-03-16T17:30:21.545Z,8.68
2019-03-16T17:32:49.210Z,8.69
2019-03-16T17:35:16.102Z,8.77
2019-03-16T17:37:42.856Z,8.82
2019-03-16T17:40:09.799Z,8.80
2019-03-16T17:42:37.911Z,8.80
2019-03-16T17:45:04.965Z,8.87
2019-03-16T17:47:31.734Z,8.94
2019-03-16T17:49:58.406Z,8.87
2019-03-16T17:52:25.073Z,8.91
2019-03-16T17:54:51.837Z,8.88
2019-03-16T17:57:18.623Z,8.94
2019-03-16T17:59:45.311Z,8.93
2019-03-16T18:02:12.274Z,8.98
2019-03-16T18:04:38.917Z,8.97
2019-03-16T18:07:05.590Z,8.96
2019-03-16T18:09:32.283Z,9.03
2019-03-16T18:11:58.936Z,8.97
2019-03-16T18:14:25.730Z,8.96
2019-03-16T18:16:52.390Z,8.92
2019-03-16T18:19:19.053Z,9.05
2019-03-16T18:21:45.825Z,9.03
2019-03-16T18:24:12.507Z,8.97
2019-03-16T18:26:39.230Z,8.89
2019-03-16T18:29:05.853Z,8.88
2019-03-16T18:31:32.633Z,8.89
2019-03-16T18:33:59.323Z,8.87
2019-03-16T18:36:26.014Z,8.93
2019-03-16T18:38:53.033Z,8.96
2019-03-16T18:41:19.697Z,8.95
2019-03-16T18:43:46.757Z,9.02
2019-03-16T18:46:13.454Z,9.01
2019-03-16T18:48:40.234Z,9.06
2019-03-16T18:51:07.187Z,9.02
2019-03-16T18:53:33.842Z,9.02
2019-03-16T18:56:00.520Z,9.02
2019-03-16T18:58:37.099Z,8.97
2019-03-16T19:00:56.108Z,8.94
2019-03-16T19:03:22.778Z,8.97
2019-03-16T19:05:49.669Z,8.96
2019-03-16T19:08:16.444Z,8.89
2019-03-16T19:10:43.118Z,8.91
2019-03-16T19:13:09.901Z,8.95
2019-03-16T19:15:36.670Z,8.97
2019-03-16T19:18:03.567Z,8.94
2019-03-16T19:20:30.309Z,8.97
2019-03-16T19:22:57.360Z,8.98
2019-03-16T19:25:24.313Z,9.06
2019-03-16T19:27:51.003Z,9.17
2019-03-16T19:30:18.177Z,9.15
2019-03-16T19:32:45.181Z,9.18
2019-03-16T19:35:11.950Z,9.22
2019-03-16T19:37:38.875Z,9.21
2019-03-16T19:40:07.550Z,9.30
2019-03-16T19:42:34.566Z,9.35
2019-03-16T19:45:01.390Z,9.26
2019-03-16T19:47:28.169Z,9.33
2019-03-16T19:49:54.822Z,9.38
2019-03-16T19:52:21.498Z,9.46
2019-03-16T19:54:48.207Z,9.49
2019-03-16T19:57:16.387Z,9.52
2019-03-16T19:59:43.294Z,9.50
2019-03-16T20:02:10.013Z,9.52
2019-03-16T20:04:36.786Z,9.60
2019-03-16T20:07:03.854Z,9.59
2019-03-16T20:09:30.618Z,9.64
2019-03-16T20:11:57.302Z,9.61
2019-03-16T20:14:24.097Z,9.60
2019-03-16T20:16:50.966Z,9.66
2019-03-16T20:19:17.639Z,9.74
2019-03-16T20:21:45.046Z,9.71
2019-03-16T20:24:11.702Z,9.63
2019-03-16T20:26:38.373Z,9.70
2019-03-16T20:29:07.762Z,9.77
2019-03-16T20:31:46.164Z,9.80
2019-03-16T20:34:02.574Z,9.82
2019-03-16T20:36:29.424Z,9.86
2019-03-16T20:38:59.080Z,9.80
2019-03-16T20:41:36.212Z,9.87
2019-03-16T20:43:58.794Z,9.85
2019-03-16T20:46:25.721Z,9.88
2019-03-16T20:48:52.803Z,9.84
2019-03-16T20:51:20.405Z,9.87
2019-03-16T20:53:47.079Z,9.88
2019-03-16T20:56:13.905Z,9.94
2019-03-16T20:58:40.824Z,10.06
2019-03-16T21:01:08.069Z,9.91
2019-03-16T21:03:34.961Z,9.93
2019-03-16T21:06:01.664Z,9.90
2019-03-16T21:08:29.585Z,9.95
2019-03-16T21:10:56.292Z,9.66
2019-03-16T21:13:23.067Z,9.98
2019-03-16T21:15:51.148Z,10.06
2019-03-16T21:18:17.983Z,10.10
2019-03-16T21:20:44.730Z,10.10
2019-03-16T21:23:11.433Z,10.11
2019-03-16T21:25:38.145Z,10.03
2019-03-16T21:28:04.892Z,10.03
2019-03-16T21:30:31.775Z,10.09
2019-03-16T21:32:58.676Z,10.03
2019-03-16T21:35:25.457Z,10.02
2019-03-16T21:37:52.168Z,10.00
2019-03-16T21:40:19.146Z,10.00
2019-03-16T21:42:45.820Z,10.05
2019-03-16T21:45:12.741Z,9.97
2019-03-16T21:47:39.882Z,9.99
2019-03-16T21:50:07.325Z,10.00
2019-03-16T21:52:34.551Z,10.05
2019-03-16T21:55:01.645Z,9.99
2019-03-16T21:57:28.643Z,9.99
2019-03-16T21:59:55.441Z,9.98
2019-03-16T22:02:22.138Z,9.95
2019-03-16T22:04:48.817Z,9.97
2019-03-16T22:07:16.086Z,9.97
2019-03-16T22:09:42.784Z,9.97
2019-03-16T22:12:09.892Z,10.06
2019-03-16T22:14:36.477Z,10.03
2019-03-16T22:17:03.270Z,9.96
2019-03-16T22:19:30.045Z,9.91
2019-03-16T22:21:56.885Z,9.93
2019-03-16T22:24:23.953Z,9.93
2019-03-16T22:26:52.652Z,9.91
2019-03-16T22:29:19.376Z,9.89
2019-03-16T22:31:46.217Z,9.90
2019-03-16T22:34:12.878Z,9.84
2019-03-16T22:36:39.991Z,9.85
2019-03-16T22:39:07.031Z,9.92
2019-03-16T22:41:34.598Z,9.87
2019-03-16T22:44:01.287Z,9.85
2019-03-16T22:46:27.990Z,9.79
2019-03-16T22:48:54.671Z,9.80
2019-03-16T22:51:21.382Z,9.91
2019-03-16T22:53:48.078Z,9.77
2019-03-16T22:56:17.182Z,9.77
2019-03-16T22:58:44.001Z,9.73
2019-03-16T23:01:10.985Z,9.74
2019-03-16T23:03:38.043Z,9.76
2019-03-16T23:06:06.399Z,9.77
2019-03-16T23:08:34.384Z,9.80
2019-03-16T23:11:01.754Z,9.81
2019-03-16T23:13:30.542Z,9.82
2019-03-16T23:15:57.227Z,9.82
2019-03-16T23:18:24.738Z,9.77
2019-03-16T23:20:51.410Z,9.76
2019-03-16T23:23:18.132Z,9.79
2019-03-16T23:25:45.607Z,9.77
2019-03-16T23:28:12.515Z,9.77
2019-03-16T23:30:39.399Z,9.76
2019-03-16T23:33:06.531Z,9.74
2019-03-16T23:35:34.614Z,9.74
2019-03-16T23:38:01.396Z,9.70
2019-03-16T23:40:28.184Z,9.68
2019-03-16T23:42:55.219Z,9.72
2019-03-16T23:45:22.355Z,9.71
2019-03-16T23:47:49.183Z,9.72
2019-03-16T23:50:17.386Z,9.70
2019-03-16T23:52:44.156Z,9.75
2019-03-16T23:55:10.992Z,9.78
2019-03-16T23:57:37.692Z,9.79
